Time;durP1;ratioP1;P1;durP2;ratioP2;P2;SDS_P1;SDS_P2;PMS_P1;PMS_P2;Temp;Humidity;BMP_temperature;BMP_pressure;BME280_temperature;BME280_humidity;BME280_pressure;Samples;Min_cycle;Max_cycle;Signal;HPM_P1;HPM_P2
2024/02/06 00:02:23;;;;;;;13.15;6.75;;;10.60;99.90;;;;;;5028837;28;20120;-73
2024/02/06 00:04:49;;;;;;;10.23;5.88;;;10.60;99.90;;;;;;5027656;28;20471;-73
2024/02/06 00:07:15;;;;;;;16.70;6.45;;;10.60;99.90;;;;;;5009663;28;20081;-73
2024/02/06 00:09:41;;;;;;;14.80;6.80;;;10.70;99.90;;;;;;5019396;28;20014;-73
2024/02/06 00:12:10;;;;;;;15.75;6.68;;;10.70;99.90;;;;;;5021495;28;20062;-73
2024/02/06 00:14:35;;;;;;;13.18;6.95;;;10.70;99.90;;;;;;5020163;28;20075;-73
2024/02/06 00:17:02;;;;;;;18.30;6.50;;;10.60;99.90;;;;;;5021258;28;20021;-73
2024/02/06 00:19:27;;;;;;;14.63;6.45;;;10.60;99.90;;;;;;5023623;28;20439;-73
2024/02/06 00:21:53;;;;;;;12.38;6.38;;;10.60;99.90;;;;;;5026529;28;20018;-73
2024/02/06 00:24:19;;;;;;;15.07;5.75;;;10.70;99.90;;;;;;5017479;28;20646;-73
2024/02/06 00:26:45;;;;;;;14.80;6.13;;;10.70;99.90;;;;;;5022180;28;20022;-73
2024/02/06 00:29:10;;;;;;;11.25;5.30;;;10.70;99.90;;;;;;5024797;28;20029;-73
2024/02/06 00:31:36;;;;;;;13.65;4.82;;;10.80;99.90;;;;;;5024965;28;20096;-73
2024/02/06 00:34:02;;;;;;;16.55;5.50;;;10.70;99.90;;;;;;5025338;28;20122;-73
2024/02/06 00:36:29;;;;;;;12.05;5.00;;;10.70;99.90;;;;;;5019288;28;20394;-73
2024/02/06 00:38:54;;;;;;;7.10;4.82;;;10.70;99.90;;;;;;5029074;28;20026;-73
2024/02/06 00:41:20;;;;;;;16.52;4.90;;;10.70;99.90;;;;;;5033772;28;20031;-73
2024/02/06 00:43:46;;;;;;;10.68;5.13;;;10.70;99.90;;;;;;5034526;28;20061;-73
2024/02/06 00:46:11;;;;;;;7.95;4.40;;;10.70;99.90;;;;;;5034293;28;20578;-73
2024/02/06 00:48:37;;;;;;;15.20;4.68;;;10.80;99.90;;;;;;5030462;28;20029;-73
2024/02/06 00:51:03;;;;;;;11.73;4.68;;;10.80;99.90;;;;;;5034253;28;20032;-73
2024/02/06 00:53:29;;;;;;;12.32;5.10;;;10.80;99.90;;;;;;5034167;28;20035;-73
2024/02/06 00:55:54;;;;;;;8.27;4.57;;;10.90;99.90;;;;;;5033076;28;20018;-73
2024/02/06 00:58:20;;;;;;;12.70;4.78;;;10.90;99.90;;;;;;5033328;28;20079;-73
2024/02/06 01:00:46;;;;;;;9.80;4.47;;;11.00;99.90;;;;;;5033389;28;20735;-73
2024/02/06 01:03:11;;;;;;;8.98;5.07;;;10.90;99.90;;;;;;5033759;28;20154;-73
2024/02/06 01:05:37;;;;;;;11.00;4.50;;;10.90;99.90;;;;;;5033966;28;20064;-73
2024/02/06 01:08:03;;;;;;;8.45;4.22;;;10.90;99.90;;;;;;5034137;28;20026;-73
2024/02/06 01:10:29;;;;;;;7.15;4.30;;;10.90;99.90;;;;;;5033642;28;20025;-73
2024/02/06 01:12:55;;;;;;;8.75;4.18;;;10.90;99.90;;;;;;5033652;28;20509;-73
2024/02/06 01:15:20;;;;;;;10.90;4.75;;;10.90;99.90;;;;;;5033939;28;20475;-73
2024/02/06 01:17:46;;;;;;;9.10;3.80;;;10.90;99.90;;;;;;5033578;28;20475;-73
2024/02/06 01:20:12;;;;;;;14.25;5.30;;;10.90;99.90;;;;;;5029270;28;20124;-73
2024/02/06 01:22:37;;;;;;;10.35;4.50;;;10.80;99.90;;;;;;5022489;28;20025;-73
2024/02/06 01:25:04;;;;;;;9.48;4.32;;;10.80;99.90;;;;;;5021879;28;20087;-73
2024/02/06 01:27:30;;;;;;;8.98;4.68;;;10.90;99.90;;;;;;5019342;28;20379;-73
2024/02/06 01:29:55;;;;;;;9.95;4.88;;;11.00;99.90;;;;;;5022368;28;20033;-73
2024/02/06 01:32:21;;;;;;;11.18;4.57;;;10.80;99.90;;;;;;5038919;28;20038;-73
2024/02/06 01:34:47;;;;;;;11.57;5.00;;;10.90;99.90;;;;;;5020177;28;20041;-73
2024/02/06 01:37:12;;;;;;;12.23;5.05;;;10.90;99.90;;;;;;5023219;28;20390;-73
2024/02/06 01:39:38;;;;;;;11.30;4.57;;;10.90;99.90;;;;;;5022188;28;20379;-73
2024/02/06 01:42:04;;;;;;;10.43;4.30;;;10.90;99.90;;;;;;5021979;28;20029;-73
2024/02/06 01:44:30;;;;;;;8.27;4.72;;;10.90;99.90;;;;;;5018769;28;20022;-73
2024/02/06 01:46:56;;;;;;;12.93;5.15;;;11.00;99.90;;;;;;5013230;28;20037;-73
2024/02/06 01:49:23;;;;;;;14.43;5.53;;;10.90;99.90;;;;;;5013514;28;20487;-73
2024/02/06 01:51:49;;;;;;;11.52;5.13;;;10.90;99.90;;;;;;5019042;28;20152;-72
2024/02/06 01:54:16;;;;;;;10.40;4.63;;;10.90;99.90;;;;;;5015592;28;20026;-73
2024/02/06 01:56:42;;;;;;;18.10;5.90;;;10.90;99.90;;;;;;5029852;28;20672;-73
2024/02/06 01:59:08;;;;;;;10.82;5.13;;;10.90;99.90;;;;;;5020983;28;20025;-73
2024/02/06 02:01:34;;;;;;;13.70;5.72;;;10.90;99.90;;;;;;5032909;28;20036;-73
2024/02/06 02:04:01;;;;;;;10.05;4.82;;;10.90;99.90;;;;;;5032604;28;20025;-73
2024/02/06 02:06:28;;;;;;;13.50;5.80;;;11.00;99.90;;;;;;5019160;28;20018;-73
2024/02/06 02:08:54;;;;;;;11.32;5.25;;;10.90;99.90;;;;;;5031818;28;20091;-73
2024/02/06 02:11:20;;;;;;;13.50;6.18;;;10.90;99.90;;;;;;5033003;28;20025;-73
2024/02/06 02:13:46;;;;;;;12.48;5.43;;;10.90;99.90;;;;;;5031766;28;20071;-73
2024/02/06 02:16:15;;;;;;;13.68;5.40;;;10.90;99.90;;;;;;5032997;28;20026;-73
2024/02/06 02:18:41;;;;;;;12.73;5.05;;;10.90;99.90;;;;;;5021815;28;20033;-73
2024/02/06 02:21:11;;;;;;;11.15;6.07;;;10.90;99.90;;;;;;5019397;28;20474;-73
2024/02/06 02:23:41;;;;;;;10.18;5.13;;;10.90;99.90;;;;;;5032171;28;20036;-73
2024/02/06 02:26:11;;;;;;;12.65;5.05;;;11.00;99.90;;;;;;5030124;28;20025;-73
2024/02/06 02:28:39;;;;;;;10.77;4.88;;;11.00;99.90;;;;;;5028966;28;20025;-73
2024/02/06 02:31:06;;;;;;;12.50;5.00;;;11.10;99.90;;;;;;5021694;28;20494;-73
2024/02/06 02:33:32;;;;;;;7.57;5.28;;;11.00;99.90;;;;;;5013149;28;20034;-73
2024/02/06 02:35:58;;;;;;;9.57;4.70;;;11.00;99.90;;;;;;5012966;28;20032;-73
2024/02/06 02:38:24;;;;;;;12.43;5.30;;;11.00;99.90;;;;;;5012241;28;20025;-73
2024/02/06 02:40:50;;;;;;;15.13;5.90;;;11.00;99.90;;;;;;5012458;28;20072;-73
2024/02/06 02:43:17;;;;;;;11.18;5.38;;;11.00;99.90;;;;;;5012626;28;20104;-73
2024/02/06 02:45:44;;;;;;;13.55;5.18;;;11.00;99.90;;;;;;5012567;28;20026;-72
2024/02/06 02:48:09;;;;;;;11.45;5.20;;;11.00;99.90;;;;;;5012821;28;20021;-73
2024/02/06 02:50:35;;;;;;;11.85;5.63;;;11.00;99.90;;;;;;5011987;28;20030;-73
2024/02/06 02:53:01;;;;;;;12.52;4.60;;;11.00;99.90;;;;;;5023367;28;20038;-72
2024/02/06 02:55:27;;;;;;;16.60;5.38;;;11.00;99.90;;;;;;5031110;28;20029;-73
2024/02/06 02:57:52;;;;;;;11.48;5.32;;;11.00;99.90;;;;;;5031024;28;20026;-72
2024/02/06 03:00:19;;;;;;;13.25;5.07;;;11.10;99.90;;;;;;5029837;28;20045;-72
2024/02/06 03:02:45;;;;;;;12.27;4.88;;;11.10;99.90;;;;;;5032549;28;20371;-72
2024/02/06 03:05:12;;;;;;;18.08;5.45;;;11.00;99.90;;;;;;5032022;28;20033;-73
2024/02/06 03:07:37;;;;;;;11.63;4.88;;;11.00;99.90;;;;;;5032369;28;20033;-72
2024/02/06 03:10:03;;;;;;;9.70;4.90;;;11.00;99.90;;;;;;5031851;28;20029;-72
2024/02/06 03:12:32;;;;;;;10.57;4.82;;;11.00;99.90;;;;;;5032284;28;20069;-72
2024/02/06 03:15:03;;;;;;;12.77;4.70;;;11.00;99.90;;;;;;5031930;28;20045;-72
2024/02/06 03:17:29;;;;;;;8.93;4.15;;;11.00;99.90;;;;;;5031618;28;20029;-72
2024/02/06 03:19:55;;;;;;;13.60;4.78;;;11.00;99.90;;;;;;5029471;28;20048;-72
2024/02/06 03:22:22;;;;;;;13.35;4.55;;;11.00;99.90;;;;;;5017968;28;20446;-72
2024/02/06 03:24:48;;;;;;;10.13;4.78;;;11.10;99.90;;;;;;5017356;28;20018;-72
2024/02/06 03:27:15;;;;;;;8.65;4.28;;;11.00;99.90;;;;;;5012004;28;20026;-73
2024/02/06 03:29:42;;;;;;;10.55;4.70;;;11.00;99.90;;;;;;5012495;28;20029;-72
2024/02/06 03:32:08;;;;;;;16.85;4.78;;;11.10;99.90;;;;;;5012323;28;20037;-72
2024/02/06 03:34:34;;;;;;;15.57;5.18;;;11.10;99.90;;;;;;5012158;28;20102;-72
2024/02/06 03:37:00;;;;;;;11.52;4.95;;;11.10;99.90;;;;;;5017682;28;20368;-72
2024/02/06 03:39:26;;;;;;;14.98;4.82;;;11.20;99.90;;;;;;5030058;28;20036;-72
2024/02/06 03:41:52;;;;;;;18.08;5.60;;;11.10;99.90;;;;;;5031684;28;20071;-73
2024/02/06 03:44:18;;;;;;;10.73;4.68;;;11.10;99.90;;;;;;5031585;28;20033;-73
2024/02/06 03:46:44;;;;;;;11.75;4.13;;;11.10;99.90;;;;;;5026285;28;20520;-73
2024/02/06 03:49:10;;;;;;;14.48;4.78;;;11.00;99.90;;;;;;5031513;28;20524;-73
2024/02/06 03:51:35;;;;;;;12.68;4.03;;;11.00;99.90;;;;;;5031624;28;20029;-72
2024/02/06 03:54:01;;;;;;;17.50;4.10;;;11.10;99.90;;;;;;5035074;28;20112;-73
2024/02/06 03:56:27;;;;;;;9.85;3.72;;;11.10;99.90;;;;;;5016851;28;20087;-73
2024/02/06 03:58:52;;;;;;;12.50;4.43;;;11.10;99.90;;;;;;5021807;28;20470;-73
2024/02/06 04:01:18;;;;;;;10.50;4.18;;;11.20;99.90;;;;;;5034915;28;20107;-72
2024/02/06 04:03:45;;;;;;;11.80;4.25;;;11.10;99.90;;;;;;5033609;28;20520;-72
2024/02/06 04:06:15;;;;;;;11.50;4.18;;;11.10;99.90;;;;;;5025534;28;20021;-72
2024/02/06 04:08:44;;;;;;;8.65;4.03;;;11.10;99.90;;;;;;5035129;28;20033;-73
2024/02/06 04:11:13;;;;;;;9.07;4.55;;;11.10;99.90;;;;;;5033720;28;20017;-73
2024/02/06 04:13:39;;;;;;;14.00;4.07;;;11.20;99.90;;;;;;5034818;28;20033;-72
2024/02/06 04:16:05;;;;;;;10.20;4.35;;;11.10;99.90;;;;;;5034951;28;20433;-72
2024/02/06 04:18:32;;;;;;;12.18;4.72;;;11.10;99.90;;;;;;5035475;28;20036;-72
2024/02/06 04:20:58;;;;;;;14.30;4.38;;;11.20;99.90;;;;;;5034296;28;20093;-72
2024/02/06 04:23:24;;;;;;;9.43;4.00;;;11.20;99.90;;;;;;5034968;28;20145;-72
2024/02/06 04:25:49;;;;;;;12.85;4.38;;;11.30;99.90;;;;;;5034955;28;20108;-72
2024/02/06 04:28:15;;;;;;;10.00;4.38;;;11.30;99.90;;;;;;5034994;28;20096;-72
2024/02/06 04:30:41;;;;;;;10.23;4.38;;;11.30;99.90;;;;;;5032531;28;20772;-73
2024/02/06 04:33:08;;;;;;;12.52;4.80;;;11.20;99.90;;;;;;5034864;28;20116;-73
2024/02/06 04:35:35;;;;;;;17.83;4.55;;;11.20;99.90;;;;;;5023705;28;20022;-73
2024/02/06 04:38:01;;;;;;;13.82;4.43;;;11.20;99.90;;;;;;5015509;28;20037;-73
2024/02/06 04:40:26;;;;;;;17.95;4.70;;;11.20;99.90;;;;;;5015299;28;20018;-73
2024/02/06 04:42:52;;;;;;;18.40;5.38;;;11.20;99.90;;;;;;5014129;28;20068;-73
2024/02/06 04:45:18;;;;;;;12.38;4.30;;;11.20;99.90;;;;;;5014988;28;20380;-73
2024/02/06 04:47:43;;;;;;;13.23;4.30;;;11.20;99.90;;;;;;5014869;28;20041;-73
2024/02/06 04:50:10;;;;;;;12.52;4.68;;;11.20;99.90;;;;;;5014451;28;20065;-73
2024/02/06 04:52:35;;;;;;;15.77;4.60;;;11.20;99.90;;;;;;5014964;28;20041;-73
2024/02/06 04:55:02;;;;;;;13.43;4.35;;;11.10;99.90;;;;;;5014347;28;20022;-73
2024/02/06 04:57:28;;;;;;;12.10;4.82;;;11.10;99.90;;;;;;5019852;28;20034;-73
2024/02/06 04:59:54;;;;;;;10.13;4.20;;;11.10;99.90;;;;;;5033901;28;20026;-73
2024/02/06 05:02:19;;;;;;;12.68;4.57;;;11.10;99.90;;;;;;5031358;28;20116;-72
2024/02/06 05:04:46;;;;;;;13.32;4.35;;;11.20;99.90;;;;;;5023078;28;20134;-72
2024/02/06 05:07:12;;;;;;;13.10;4.30;;;11.20;99.90;;;;;;5012930;28;20124;-72
2024/02/06 05:09:38;;;;;;;13.50;4.47;;;11.20;99.90;;;;;;5013267;28;20409;-72
2024/02/06 05:12:05;;;;;;;16.45;4.78;;;11.20;99.90;;;;;;5020858;28;20470;-72
2024/02/06 05:14:31;;;;;;;14.10;5.18;;;11.20;99.90;;;;;;5034399;28;20025;-72
2024/02/06 05:16:57;;;;;;;15.95;4.38;;;11.20;99.90;;;;;;5034077;28;20403;-73
2024/02/06 05:19:22;;;;;;;20.35;4.82;;;11.20;99.90;;;;;;5033586;28;20032;-72
2024/02/06 05:21:49;;;;;;;15.10;4.85;;;11.20;99.90;;;;;;5034135;28;20428;-72
2024/02/06 05:24:15;;;;;;;14.05;4.22;;;11.20;99.90;;;;;;5026172;28;20454;-72
2024/02/06 05:26:40;;;;;;;12.00;4.63;;;11.20;99.90;;;;;;5030149;28;20056;-72
2024/02/06 05:29:06;;;;;;;13.85;5.13;;;11.30;99.90;;;;;;5033344;28;20067;-72
2024/02/06 05:31:32;;;;;;;15.98;5.30;;;11.30;99.90;;;;;;5033665;28;20088;-72
2024/02/06 05:33:59;;;;;;;13.70;4.90;;;11.30;99.90;;;;;;5033503;28;20022;-72
2024/02/06 05:36:25;;;;;;;14.38;4.35;;;11.30;99.90;;;;;;5031837;28;20028;-72
2024/02/06 05:38:50;;;;;;;14.38;4.95;;;11.30;99.90;;;;;;5032248;28;20445;-72
2024/02/06 05:41:17;;;;;;;15.57;4.85;;;11.30;99.90;;;;;;5033501;28;20029;-73
2024/02/06 05:43:43;;;;;;;17.88;4.30;;;11.30;99.90;;;;;;5032638;28;20021;-72
2024/02/06 05:46:09;;;;;;;10.80;4.45;;;11.30;99.90;;;;;;5033613;28;20033;-72
2024/02/06 05:48:35;;;;;;;13.00;4.65;;;11.30;99.90;;;;;;5033841;28;20029;-72
2024/02/06 05:51:05;;;;;;;14.55;4.57;;;11.30;99.90;;;;;;5032961;28;20025;-72
2024/02/06 05:53:34;;;;;;;13.57;5.03;;;11.30;99.90;;;;;;5033391;28;20029;-72
2024/02/06 05:56:06;;;;;;;15.10;4.93;;;11.20;99.90;;;;;;5032152;28;20051;-72
2024/02/06 05:58:32;;;;;;;16.92;4.82;;;11.30;99.90;;;;;;5033214;28;20037;-72
2024/02/06 06:00:58;;;;;;;20.38;5.90;;;11.30;99.90;;;;;;5033584;28;20113;-73
2024/02/06 06:03:24;;;;;;;22.33;6.28;;;11.30;99.90;;;;;;5032413;28;20108;-73
2024/02/06 06:05:50;;;;;;;16.33;5.13;;;11.40;99.90;;;;;;5023499;28;20498;-73
2024/02/06 06:08:16;;;;;;;13.90;5.35;;;11.40;99.90;;;;;;5012819;28;20466;-73
2024/02/06 06:10:41;;;;;;;13.02;4.85;;;11.40;99.90;;;;;;5012832;28;20032;-73
2024/02/06 06:13:07;;;;;;;17.02;5.32;;;11.30;99.90;;;;;;5012144;28;20057;-72
2024/02/06 06:15:32;;;;;;;19.05;5.75;;;11.40;99.90;;;;;;5011856;28;20387;-72
2024/02/06 06:17:58;;;;;;;16.83;5.03;;;11.40;99.90;;;;;;5013447;28;20021;-72
2024/02/06 06:20:24;;;;;;;17.15;5.22;;;11.40;99.90;;;;;;5014771;28;20470;-72
2024/02/06 06:22:50;;;;;;;11.20;4.72;;;11.30;99.90;;;;;;5031655;28;20033;-72
2024/02/06 06:25:15;;;;;;;20.05;5.72;;;11.40;99.90;;;;;;5028102;28;20029;-73
2024/02/06 06:27:42;;;;;;;13.25;5.80;;;11.30;99.90;;;;;;5013178;28;20383;-73
2024/02/06 06:30:09;;;;;;;15.52;5.43;;;11.40;99.90;;;;;;5013680;28;20126;-73
2024/02/06 06:32:35;;;;;;;18.40;4.63;;;11.50;99.90;;;;;;5013114;28;20046;-77
2024/02/06 06:35:03;;;;;;;12.65;4.80;;;11.50;99.90;;;;;;5013283;28;20104;-73
2024/02/06 06:37:29;;;;;;;20.85;5.40;;;11.40;99.90;;;;;;5018082;28;20116;-73
2024/02/06 06:39:56;;;;;;;14.70;5.28;;;11.40;99.90;;;;;;5019981;28;20107;-74
2024/02/06 06:42:22;;;;;;;13.65;4.72;;;11.40;99.90;;;;;;5012399;28;20105;-73
2024/02/06 06:44:47;;;;;;;15.00;4.97;;;11.50;99.90;;;;;;5012682;28;20105;-73
2024/02/06 06:47:13;;;;;;;14.10;5.20;;;11.50;99.90;;;;;;5022041;28;20590;-73
2024/02/06 06:49:39;;;;;;;17.83;4.28;;;11.50;99.90;;;;;;5016064;28;20026;-73
2024/02/06 06:52:07;;;;;;;13.18;5.00;;;11.50;99.90;;;;;;5011966;28;20040;-73
2024/02/06 06:54:33;;;;;;;14.82;5.20;;;11.50;99.90;;;;;;5015224;28;20032;-73
2024/02/06 06:57:01;;;;;;;16.45;5.38;;;11.50;99.90;;;;;;5031490;28;20017;-73
2024/02/06 06:59:27;;;;;;;17.85;5.13;;;11.40;99.90;;;;;;5030830;28;20565;-73
2024/02/06 07:01:52;;;;;;;15.93;5.28;;;11.50;99.90;;;;;;5023902;28;20120;-73
2024/02/06 07:04:18;;;;;;;14.32;4.57;;;11.50;99.90;;;;;;5030707;28;20462;-73
2024/02/06 07:06:44;;;;;;;18.63;5.13;;;11.50;99.90;;;;;;5031009;28;20418;-73
2024/02/06 07:09:10;;;;;;;15.80;4.85;;;11.60;99.90;;;;;;5032300;28;20040;-73
2024/02/06 07:11:35;;;;;;;11.90;4.47;;;11.50;99.90;;;;;;5032014;28;20033;-73
2024/02/06 07:14:01;;;;;;;18.95;5.03;;;11.60;99.90;;;;;;5031386;28;20132;-73
2024/02/06 07:16:27;;;;;;;21.48;5.47;;;11.60;99.90;;;;;;5030260;28;20033;-73
2024/02/06 07:18:52;;;;;;;20.17;5.03;;;11.60;99.90;;;;;;5031174;28;20032;-73
2024/02/06 07:21:18;;;;;;;14.70;4.53;;;11.50;99.90;;;;;;5028892;28;20029;-73
2024/02/06 07:23:44;;;;;;;16.27;5.38;;;11.60;99.90;;;;;;5031992;28;20032;-73
2024/02/06 07:26:11;;;;;;;16.00;5.25;;;11.60;99.90;;;;;;5030390;28;20026;-73
2024/02/06 07:28:38;;;;;;;20.63;5.15;;;11.60;99.90;;;;;;5027454;28;20029;-73
2024/02/06 07:31:04;;;;;;;18.38;5.75;;;11.60;99.90;;;;;;5013076;28;20030;-73
2024/02/06 07:33:31;;;;;;;16.77;4.72;;;11.60;99.90;;;;;;5012296;28;20036;-73
2024/02/06 07:35:57;;;;;;;16.20;4.97;;;11.60;99.90;;;;;;5011584;28;20026;-73
2024/02/06 07:38:23;;;;;;;17.73;4.97;;;11.60;99.90;;;;;;5021930;28;20037;-73
2024/02/06 07:40:49;;;;;;;19.95;5.30;;;11.50;99.90;;;;;;5027811;28;20048;-73
2024/02/06 07:43:14;;;;;;;16.38;5.00;;;11.60;99.90;;;;;;5021605;28;20017;-73
2024/02/06 07:45:40;;;;;;;18.23;5.30;;;11.60;99.90;;;;;;5021982;28;20467;-73
2024/02/06 07:48:07;;;;;;;20.52;5.80;;;11.60;99.90;;;;;;5012115;28;20030;-73
2024/02/06 07:50:33;;;;;;;20.50;4.45;;;11.60;99.90;;;;;;5011881;28;20022;-73
2024/02/06 07:52:59;;;;;;;15.25;4.30;;;11.60;99.90;;;;;;5011513;28;20034;-72
2024/02/06 07:55:25;;;;;;;21.42;5.45;;;11.60;99.90;;;;;;5010359;28;20075;-73
2024/02/06 07:57:50;;;;;;;21.50;5.07;;;11.70;99.90;;;;;;5016748;28;20025;-73
2024/02/06 08:00:17;;;;;;;14.27;5.03;;;11.70;99.90;;;;;;5030985;28;20141;-73
2024/02/06 08:02:42;;;;;;;22.42;5.20;;;11.70;99.90;;;;;;5015318;28;20057;-73
2024/02/06 08:05:08;;;;;;;16.50;4.75;;;11.70;99.90;;;;;;5020830;28;20480;-73
2024/02/06 08:07:38;;;;;;;15.88;4.30;;;11.70;99.90;;;;;;5030698;28;20151;-73
2024/02/06 08:10:04;;;;;;;18.30;5.00;;;11.70;99.90;;;;;;5029007;28;20394;-73
2024/02/06 08:12:32;;;;;;;20.27;5.25;;;11.80;99.90;;;;;;5021194;28;20034;-72
2024/02/06 08:14:59;;;;;;;15.05;5.07;;;11.80;99.90;;;;;;5023070;28;20025;-72
2024/02/06 08:17:24;;;;;;;10.68;4.03;;;11.80;99.90;;;;;;5016626;28;20443;-71
2024/02/06 08:19:50;;;;;;;21.92;4.70;;;11.80;99.90;;;;;;5011338;28;20467;-71
2024/02/06 08:22:16;;;;;;;20.52;5.30;;;11.80;99.90;;;;;;5016581;28;20415;-71
2024/02/06 08:24:41;;;;;;;15.65;4.95;;;11.80;99.90;;;;;;5025923;28;20064;-71
2024/02/06 08:27:07;;;;;;;13.05;4.93;;;11.80;99.90;;;;;;5029453;28;20048;-71
2024/02/06 08:29:33;;;;;;;17.30;5.68;;;11.70;99.90;;;;;;5029690;28;20025;-72
2024/02/06 08:31:58;;;;;;;13.38;4.55;;;11.80;99.90;;;;;;5030351;28;20038;-72
2024/02/06 08:34:25;;;;;;;15.88;5.60;;;11.80;99.90;;;;;;5029189;28;20021;-72
2024/02/06 08:36:50;;;;;;;17.45;5.68;;;11.70;99.90;;;;;;5022794;28;20138;-73
2024/02/06 08:39:16;;;;;;;15.15;4.80;;;11.70;99.90;;;;;;5013658;28;20120;-72
2024/02/06 08:41:42;;;;;;;14.88;5.72;;;11.70;99.90;;;;;;5027489;28;20057;-72
2024/02/06 08:44:08;;;;;;;20.58;6.40;;;11.60;99.90;;;;;;5022334;28;20478;-72
2024/02/06 08:46:35;;;;;;;20.77;6.70;;;11.70;99.90;;;;;;5006952;28;21285;-73
2024/02/06 08:49:00;;;;;;;17.15;5.65;;;11.80;99.90;;;;;;4998410;28;20084;-72
2024/02/06 08:51:26;;;;;;;17.77;6.25;;;11.80;99.90;;;;;;5033243;28;20037;-72
2024/02/06 08:53:52;;;;;;;17.88;5.88;;;11.70;99.90;;;;;;5036021;28;22539;-73
2024/02/06 08:56:17;;;;;;;19.85;5.90;;;11.80;99.90;;;;;;5031956;28;20118;-73
2024/02/06 08:58:43;;;;;;;19.85;5.75;;;11.70;99.90;;;;;;5033819;28;20051;-73
2024/02/06 09:01:09;;;;;;;13.55;5.20;;;11.80;99.90;;;;;;5038694;28;20033;-73
2024/02/06 09:03:34;;;;;;;14.20;5.60;;;11.70;99.90;;;;;;5037670;28;20386;-75
2024/02/06 09:06:00;;;;;;;13.57;5.03;;;11.70;99.90;;;;;;5035604;28;20578;-73
2024/02/06 09:08:26;;;;;;;23.33;5.82;;;11.70;99.90;;;;;;5035064;28;20033;-73
2024/02/06 09:10:52;;;;;;;18.63;6.22;;;11.80;99.90;;;;;;5036509;28;20039;-73
2024/02/06 09:13:18;;;;;;;17.95;5.25;;;11.70;99.90;;;;;;5035379;28;20041;-73
2024/02/06 09:15:44;;;;;;;16.85;4.93;;;11.70;99.90;;;;;;5035687;28;20067;-72
2024/02/06 09:18:10;;;;;;;13.75;4.80;;;11.80;99.90;;;;;;5033007;28;20053;-73
2024/02/06 09:20:36;;;;;;;16.00;4.80;;;11.90;99.90;;;;;;5035308;28;20029;-72
2024/02/06 09:23:03;;;;;;;14.05;5.13;;;11.80;99.90;;;;;;5037212;28;20478;-73
2024/02/06 09:25:29;;;;;;;14.07;5.25;;;11.80;99.90;;;;;;5031929;28;20025;-73
2024/02/06 09:27:55;;;;;;;16.58;5.13;;;11.90;99.90;;;;;;5035010;28;20022;-73
2024/02/06 09:30:21;;;;;;;13.25;5.78;;;11.80;99.90;;;;;;5034718;28;20462;-73
2024/02/06 09:32:46;;;;;;;15.85;5.40;;;11.80;99.90;;;;;;5031445;28;20493;-73
2024/02/06 09:35:12;;;;;;;20.30;6.20;;;11.80;99.90;;;;;;5033078;28;20060;-73
2024/02/06 09:37:38;;;;;;;17.40;5.97;;;11.80;99.90;;;;;;5032589;28;20142;-73
2024/02/06 09:40:04;;;;;;;16.65;4.95;;;11.80;99.90;;;;;;5033531;28;20079;-73
2024/02/06 09:42:31;;;;;;;16.65;5.78;;;11.90;99.90;;;;;;5032893;28;20014;-73
2024/02/06 09:44:59;;;;;;;19.10;6.40;;;11.90;99.90;;;;;;5030945;28;20135;-72
2024/02/06 09:47:26;;;;;;;16.38;6.05;;;11.80;99.90;;;;;;5034247;28;20393;-72
2024/02/06 09:49:52;;;;;;;18.02;5.80;;;11.80;99.90;;;;;;5028065;28;20051;-73
2024/02/06 09:52:20;;;;;;;20.60;6.15;;;11.80;99.90;;;;;;5035396;28;20490;-72
2024/02/06 09:54:48;;;;;;;17.92;6.00;;;11.80;99.90;;;;;;5029131;28;20030;-72
2024/02/06 09:57:20;;;;;;;22.88;8.25;;;11.80;99.90;;;;;;5036227;28;20037;-72
2024/02/06 09:59:49;;;;;;;20.00;7.18;;;11.80;99.90;;;;;;5031042;28;20055;-72
2024/02/06 10:02:16;;;;;;;17.23;6.90;;;11.80;99.90;;;;;;5032760;28;20493;-72
2024/02/06 10:04:43;;;;;;;18.33;6.05;;;11.80;99.90;;;;;;5033857;28;20098;-71
2024/02/06 10:07:12;;;;;;;15.98;6.70;;;11.80;99.90;;;;;;5033592;28;20025;-72
2024/02/06 10:09:38;;;;;;;20.02;6.25;;;11.80;99.90;;;;;;5032219;28;20109;-71
2024/02/06 10:12:05;;;;;;;19.67;6.05;;;11.90;99.90;;;;;;5032502;28;20021;-72
2024/02/06 10:14:31;;;;;;;19.58;6.25;;;12.00;99.90;;;;;;5030229;28;20479;-72
2024/02/06 10:16:56;;;;;;;21.55;6.20;;;12.10;99.90;;;;;;5031501;28;20630;-72
2024/02/06 10:19:32;;;;;;;14.02;5.38;;;12.10;99.90;;;;;;5030321;28;20052;-71
2024/02/06 10:21:59;;;;;;;26.70;6.43;;;12.20;99.90;;;;;;5032400;28;20063;-72
2024/02/06 10:24:25;;;;;;;19.40;6.32;;;12.20;99.90;;;;;;5028166;28;20009;-72
2024/02/06 10:27:02;;;;;;;22.38;6.35;;;12.20;99.90;;;;;;5030445;28;20025;-73
2024/02/06 10:29:28;;;;;;;19.00;6.13;;;12.10;99.90;;;;;;5034982;28;20009;-73
2024/02/06 10:32:00;;;;;;;15.80;5.68;;;12.10;99.90;;;;;;5031488;28;20025;-73
2024/02/06 10:34:27;;;;;;;21.67;6.80;;;12.10;99.90;;;;;;5031041;28;20037;-73
2024/02/06 10:36:58;;;;;;;21.15;5.97;;;12.20;99.90;;;;;;5029526;28;20025;-73
2024/02/06 10:39:27;;;;;;;13.43;5.18;;;12.20;99.90;;;;;;5031743;28;20390;-74
2024/02/06 10:42:00;;;;;;;13.25;5.18;;;12.00;99.90;;;;;;5032574;28;20104;-73
2024/02/06 10:44:28;;;;;;;18.08;6.15;;;12.10;99.90;;;;;;5030409;28;20029;-74
2024/02/06 10:46:58;;;;;;;17.88;6.35;;;12.10;99.90;;;;;;5030322;28;20997;-73
2024/02/06 10:49:24;;;;;;;18.75;6.25;;;12.10;99.90;;;;;;5027751;28;20186;-73
2024/02/06 10:51:49;;;;;;;16.27;6.13;;;12.00;99.90;;;;;;5027807;28;20112;-74
2024/02/06 10:54:20;;;;;;;23.08;5.63;;;12.00;99.90;;;;;;5028830;28;20065;-73
2024/02/06 10:56:54;;;;;;;16.08;5.78;;;12.00;99.90;;;;;;5029309;28;20171;-74
2024/02/06 10:59:23;;;;;;;17.23;6.07;;;12.10;99.90;;;;;;5028123;28;20036;-74
2024/02/06 11:01:49;;;;;;;18.40;6.50;;;12.10;99.90;;;;;;5023335;28;20030;-74
2024/02/06 11:04:16;;;;;;;19.75;6.55;;;12.10;99.90;;;;;;5028408;28;20551;-73
2024/02/06 11:07:02;;;;;;;20.90;5.97;;;12.10;99.90;;;;;;5033454;28;20017;-74
2024/02/06 11:09:30;;;;;;;14.68;5.55;;;12.10;99.90;;;;;;5032957;28;20071;-73
2024/02/06 11:11:58;;;;;;;16.00;6.40;;;12.10;99.90;;;;;;5029187;28;20124;-73
2024/02/06 11:14:24;;;;;;;14.40;6.22;;;12.10;99.90;;;;;;5032703;28;20029;-73
2024/02/06 11:16:58;;;;;;;17.85;6.80;;;12.10;99.90;;;;;;5031981;28;20025;-74
2024/02/06 11:19:48;;;;;;;20.25;5.95;;;12.10;99.90;;;;;;5036640;28;20057;-73
2024/02/06 11:22:30;;;;;;;22.70;6.00;;;12.10;99.90;;;;;;5034647;28;20642;-72
2024/02/06 11:24:57;;;;;;;14.00;5.53;;;12.20;99.90;;;;;;5031147;28;20033;-72
2024/02/06 11:27:24;;;;;;;13.20;5.22;;;12.10;99.90;;;;;;5032494;28;20051;-72
2024/02/06 11:29:52;;;;;;;9.57;4.82;;;12.10;99.90;;;;;;5028221;28;20025;-72
2024/02/06 11:32:18;;;;;;;16.38;6.10;;;12.10;99.90;;;;;;5033670;28;20034;-72
2024/02/06 11:34:52;;;;;;;14.18;5.60;;;12.10;99.90;;;;;;5032742;28;20025;-71
2024/02/06 11:37:28;;;;;;;15.77;5.63;;;12.20;99.90;;;;;;5037652;28;20121;-71
2024/02/06 11:40:10;;;;;;;15.82;5.18;;;12.20;99.90;;;;;;5040149;28;20032;-71
2024/02/06 11:42:38;;;;;;;12.18;4.55;;;12.30;99.90;;;;;;5038620;28;20033;-71
2024/02/06 11:45:04;;;;;;;16.50;5.35;;;12.30;99.90;;;;;;5036414;28;20036;-71
2024/02/06 11:47:30;;;;;;;10.90;4.43;;;12.30;99.90;;;;;;5033549;28;20036;-72
2024/02/06 11:50:06;;;;;;;14.70;4.82;;;12.30;99.90;;;;;;5036624;28;20025;-72
2024/02/06 11:52:32;;;;;;;12.93;5.28;;;12.30;99.90;;;;;;5037535;28;20429;-70
2024/02/06 11:54:59;;;;;;;16.38;4.85;;;12.30;99.90;;;;;;5035422;28;20090;-71
2024/02/06 11:57:24;;;;;;;11.82;4.43;;;12.50;99.90;;;;;;5027366;28;20033;-72
2024/02/06 11:59:51;;;;;;;13.45;5.53;;;12.50;99.90;;;;;;5035763;28;20028;-73
2024/02/06 12:02:17;;;;;;;15.85;5.10;;;12.60;99.90;;;;;;5036421;28;20112;-72
2024/02/06 12:05:04;;;;;;;13.20;4.10;;;12.70;99.90;;;;;;5033570;28;20105;-72
2024/02/06 12:07:30;;;;;;;14.38;4.32;;;12.60;99.90;;;;;;5034912;28;20432;-71
2024/02/06 12:09:55;;;;;;;16.42;4.28;;;12.70;99.90;;;;;;5026309;28;20056;-72
2024/02/06 12:12:21;;;;;;;17.05;4.40;;;12.80;99.90;;;;;;5030034;28;20509;-72
2024/02/06 12:14:47;;;;;;;12.60;4.55;;;12.80;99.90;;;;;;5031222;28;20029;-72
2024/02/06 12:17:13;;;;;;;15.13;4.10;;;12.90;99.90;;;;;;5026932;28;20643;-72
2024/02/06 12:19:38;;;;;;;16.75;4.68;;;12.90;99.90;;;;;;5031256;28;20021;-71
2024/02/06 12:22:12;;;;;;;17.92;4.28;;;12.90;99.90;;;;;;5028015;28;20048;-72
2024/02/06 12:24:40;;;;;;;17.45;4.28;;;12.90;99.90;;;;;;5035309;28;20017;-72
2024/02/06 12:27:07;;;;;;;11.77;3.80;;;12.90;99.90;;;;;;5033667;28;20100;-72
2024/02/06 12:29:41;;;;;;;17.58;4.07;;;12.90;99.90;;;;;;5026288;28;20018;-71
2024/02/06 12:32:07;;;;;;;17.98;4.43;;;12.90;99.90;;;;;;5030611;28;20029;-72
2024/02/06 12:34:34;;;;;;;21.95;4.18;;;12.80;99.90;;;;;;5025385;28;20034;-72
2024/02/06 12:37:01;;;;;;;12.63;4.40;;;12.90;99.90;;;;;;5035784;28;20013;-72